TimeCST,TemperatureF,Dew PointF,Humidity,Sea Level PressureIn,VisibilityMPH,Wind Direction,Wind SpeedMPH,Gust SpeedMPH,PrecipitationIn,Events,Conditions,WindDirDegrees,DateUTC
12:56 AM,36.0,21.0,55,30.35,10.0,Calm,Calm,-,N/A,,Clear,0,2013-02-02 06:56:00
1:56 AM,36.0,18.0,48,30.34,10.0,East,3.5,-,N/A,,Clear,100,2013-02-02 07:56:00
2:56 AM,36.0,18.0,48,30.35,10.0,Calm,Calm,-,N/A,,Clear,0,2013-02-02 08:56:00
3:56 AM,33.1,21.9,64,30.34,10.0,Calm,Calm,-,N/A,,Clear,0,2013-02-02 09:56:00
4:56 AM,33.1,21.0,61,30.35,10.0,Calm,Calm,-,N/A,,Clear,0,2013-02-02 10:56:00
5:56 AM,30.9,23.0,72,30.35,10.0,Calm,Calm,-,N/A,,Clear,0,2013-02-02 11:56:00
6:56 AM,32.0,24.1,73,30.36,10.0,Calm,Calm,-,N/A,,Clear,0,2013-02-02 12:56:00
7:56 AM,39.0,21.0,49,30.37,10.0,SSE,6.9,-,N/A,,Clear,150,2013-02-02 13:56:00
8:56 AM,45.0,19.0,36,30.37,10.0,Variable,5.8,-,N/A,,Clear,0,2013-02-02 14:56:00
9:56 AM,48.9,17.1,28,30.35,10.0,Variable,6.9,-,N/A,,Clear,0,2013-02-02 15:56:00
10:56 AM,55.0,18.0,23,30.32,10.0,Calm,Calm,-,N/A,,Clear,0,2013-02-02 16:56:00
11:56 AM,57.9,19.9,23,30.28,10.0,SW,8.1,-,N/A,,Clear,220,2013-02-02 17:56:00
12:56 PM,63.0,21.0,20,30.23,10.0,Variable,5.8,-,N/A,,Clear,0,2013-02-02 18:56:00
1:56 PM,64.9,21.9,19,30.21,10.0,West,8.1,-,N/A,,Clear,280,2013-02-02 19:56:00
2:56 PM,66.0,24.1,20,30.19,10.0,WSW,3.5,-,N/A,,Clear,240,2013-02-02 20:56:00
3:56 PM,66.0,26.1,22,30.17,10.0,WSW,6.9,-,N/A,,Clear,250,2013-02-02 21:56:00
4:56 PM,64.0,28.0,26,30.17,10.0,WSW,3.5,-,N/A,,Clear,240,2013-02-02 22:56:00
5:56 PM,60.1,33.1,36,30.17,10.0,WSW,4.6,-,N/A,,Clear,240,2013-02-02 23:56:00
6:56 PM,57.0,36.0,45,30.18,10.0,Variable,4.6,-,N/A,,Partly Cloudy,0,2013-02-03 00:56:00
7:56 PM,55.9,37.9,51,30.19,10.0,West,4.6,-,N/A,,Mostly Cloudy,260,2013-02-03 01:56:00
8:56 PM,54.0,39.9,59,30.18,10.0,Calm,Calm,-,N/A,,Mostly Cloudy,0,2013-02-03 02:56:00
9:56 PM,54.0,41.0,62,30.19,10.0,Calm,Calm,-,N/A,,Overcast,0,2013-02-03 03:56:00
10:56 PM,52.0,41.0,66,30.18,10.0,Calm,Calm,-,N/A,,Mostly Cloudy,0,2013-02-03 04:56:00
11:56 PM,52.0,45.0,77,30.19,10.0,North,5.8,-,0.02,Rain,Light Rain,360,2013-02-03 05:56:00